createdAt,value
2019-05-11T00:01:27.630Z,7.65
2019-05-11T00:03:57.087Z,7.64
2019-05-11T00:06:26.691Z,7.63
2019-05-11T00:08:59.529Z,7.61
2019-05-11T00:11:28.950Z,7.55
2019-05-11T00:13:58.517Z,7.48
2019-05-11T00:16:28.047Z,7.45
2019-05-11T00:18:57.683Z,7.43
2019-05-11T00:21:27.118Z,7.42
2019-05-11T00:23:56.741Z,7.41
2019-05-11T00:26:26.594Z,7.39
2019-05-11T00:28:56.157Z,7.38
2019-05-11T00:31:26.890Z,7.40
2019-05-11T00:33:56.400Z,7.46
2019-05-11T00:36:25.871Z,7.53
2019-05-11T00:38:57.704Z,7.60
2019-05-11T00:41:27.314Z,7.63
2019-05-11T00:43:56.924Z,7.67
2019-05-11T00:46:26.316Z,7.68
2019-05-11T00:48:55.679Z,7.68
2019-05-11T00:51:25.250Z,7.65
2019-05-11T00:53:54.811Z,7.58
2019-05-11T00:56:24.289Z,7.52
2019-05-11T00:58:53.864Z,7.48
2019-05-11T01:01:23.791Z,7.42
2019-05-11T01:03:53.195Z,7.36
2019-05-11T01:06:23.087Z,7.32
2019-05-11T01:08:52.623Z,7.28
2019-05-11T01:11:22.101Z,7.24
2019-05-11T01:13:51.554Z,7.23
2019-05-11T01:16:21.388Z,7.23
2019-05-11T01:18:50.847Z,7.24
2019-05-11T01:21:20.263Z,7.38
2019-05-11T01:23:49.811Z,7.51
2019-05-11T01:26:19.217Z,7.62
2019-05-11T01:28:48.735Z,7.68
2019-05-11T01:31:18.251Z,7.72
2019-05-11T01:33:47.725Z,7.74
2019-05-11T01:36:17.109Z,7.79
2019-05-11T01:38:46.575Z,7.80
2019-05-11T01:41:16.131Z,7.83
2019-05-11T01:43:45.578Z,7.80
2019-05-11T01:46:15.069Z,7.78
2019-05-11T01:48:44.819Z,7.78
2019-05-11T01:51:14.240Z,7.78
2019-05-11T01:53:43.670Z,7.81
2019-05-11T01:56:13.084Z,7.83
2019-05-11T01:58:42.596Z,7.86
2019-05-11T02:01:12.130Z,7.88
2019-05-11T02:03:41.510Z,7.90
2019-05-11T02:06:10.847Z,7.90
2019-05-11T02:08:40.326Z,7.90
2019-05-11T02:11:16.060Z,7.91
2019-05-11T02:13:40.876Z,7.92
2019-05-11T02:16:10.370Z,7.93
2019-05-11T02:18:39.715Z,7.94
2019-05-11T02:21:09.095Z,7.95
2019-05-11T02:23:38.489Z,7.97
2019-05-11T02:26:07.968Z,7.98
2019-05-11T02:28:37.428Z,7.99
2019-05-11T02:31:06.898Z,8.03
2019-05-11T02:33:36.323Z,8.04
2019-05-11T02:36:05.752Z,8.06
2019-05-11T02:38:35.183Z,8.05
2019-05-11T02:41:04.659Z,8.06
2019-05-11T02:43:33.994Z,8.07
2019-05-11T02:46:03.351Z,8.08
2019-05-11T02:48:33.040Z,8.04
2019-05-11T02:51:02.637Z,8.01
2019-05-11T02:53:33.621Z,7.97
2019-05-11T02:56:03.157Z,7.93
2019-05-11T02:58:32.668Z,7.88
2019-05-11T03:01:02.021Z,7.86
2019-05-11T03:03:31.493Z,7.84
2019-05-11T03:06:00.852Z,7.84
2019-05-11T03:08:30.511Z,7.85
2019-05-11T03:10:59.912Z,7.84
2019-05-11T03:13:29.347Z,7.83
2019-05-11T03:15:58.935Z,7.83
2019-05-11T03:18:28.500Z,7.78
2019-05-11T03:20:58.094Z,7.78
2019-05-11T03:23:27.583Z,7.77
2019-05-11T03:25:57.092Z,7.76
2019-05-11T03:28:26.639Z,7.76
2019-05-11T03:30:56.199Z,7.77
2019-05-11T03:33:25.622Z,7.77
2019-05-11T03:35:54.997Z,7.77
2019-05-11T03:38:25.413Z,7.75
2019-05-11T03:40:54.750Z,7.75
2019-05-11T03:43:24.267Z,7.74
2019-05-11T03:45:53.709Z,7.74
2019-05-11T03:48:23.285Z,7.76
2019-05-11T03:50:52.734Z,7.75
2019-05-11T03:53:22.147Z,7.74
2019-05-11T03:55:51.627Z,7.72
2019-05-11T03:58:25.511Z,7.71
2019-05-11T04:00:52.292Z,7.69
2019-05-11T04:03:21.779Z,7.67
2019-05-11T04:05:51.253Z,7.66
2019-05-11T04:08:20.573Z,7.65
2019-05-11T04:10:50.043Z,7.62
2019-05-11T04:13:19.419Z,7.60
2019-05-11T04:15:48.819Z,7.58
2019-05-11T04:18:18.300Z,7.58
2019-05-11T04:20:47.788Z,7.58
2019-05-11T04:23:17.168Z,7.59
2019-05-11T04:25:46.689Z,7.63
2019-05-11T04:28:16.154Z,7.67
2019-05-11T04:30:45.557Z,7.73
2019-05-11T04:33:14.948Z,7.79
2019-05-11T04:35:44.340Z,7.84
2019-05-11T04:38:13.717Z,7.90
2019-05-11T04:40:43.252Z,7.95
2019-05-11T04:43:12.622Z,8.00
2019-05-11T04:45:42.049Z,8.09
2019-05-11T04:48:11.526Z,8.19
2019-05-11T04:50:40.966Z,8.27
2019-05-11T04:53:10.598Z,8.32
2019-05-11T04:55:40.018Z,8.35
2019-05-11T04:58:09.418Z,8.35
2019-05-11T05:00:38.901Z,8.35
2019-05-11T05:03:08.340Z,8.36
2019-05-11T05:05:37.864Z,8.41
2019-05-11T05:08:09.915Z,8.47
2019-05-11T05:10:38.598Z,8.51
2019-05-11T05:13:10.728Z,8.55
2019-05-11T05:15:39.274Z,8.61
2019-05-11T05:18:08.719Z,8.70
2019-05-11T05:20:38.323Z,8.78
2019-05-11T05:23:07.717Z,8.85
2019-05-11T05:25:37.172Z,8.94
2019-05-11T05:28:06.550Z,9.04
2019-05-11T05:30:35.953Z,9.14
2019-05-11T05:33:05.745Z,9.24
2019-05-11T05:35:35.396Z,9.25
2019-05-11T05:38:05.099Z,9.38
2019-05-11T05:40:34.658Z,9.48
2019-05-11T05:43:04.224Z,9.69
2019-05-11T05:45:33.739Z,9.64
2019-05-11T05:48:03.424Z,9.79
2019-05-11T05:50:32.914Z,9.92
2019-05-11T05:53:02.335Z,10.03
2019-05-11T05:55:31.850Z,10.14
2019-05-11T05:58:01.390Z,10.17
2019-05-11T06:00:30.950Z,10.21
2019-05-11T06:03:00.404Z,10.22
2019-05-11T06:05:30.853Z,10.28
2019-05-11T06:08:00.566Z,10.36
2019-05-11T06:10:29.978Z,10.42
2019-05-11T06:12:59.438Z,10.53
2019-05-11T06:15:28.998Z,10.57
2019-05-11T06:18:00.552Z,10.57
2019-05-11T06:20:29.519Z,10.60
2019-05-11T06:22:59.055Z,10.61
2019-05-11T06:25:28.635Z,10.65
2019-05-11T06:27:58.141Z,10.71
2019-05-11T06:30:27.670Z,10.77
2019-05-11T06:32:57.091Z,10.77
2019-05-11T06:35:26.561Z,10.87
2019-05-11T06:37:56.055Z,10.80
2019-05-11T06:40:28.557Z,10.63
2019-05-11T06:42:56.624Z,10.46
2019-05-11T06:45:26.659Z,10.38
2019-05-11T06:47:56.099Z,10.32
2019-05-11T06:50:25.579Z,10.32
2019-05-11T06:52:55.001Z,10.44
2019-05-11T06:55:24.478Z,10.47
2019-05-11T06:57:54.149Z,10.49
2019-05-11T07:00:23.653Z,10.49
2019-05-11T07:02:53.117Z,10.50
2019-05-11T07:05:22.626Z,10.59
2019-05-11T07:07:52.045Z,10.72
2019-05-11T07:10:21.410Z,10.91
2019-05-11T07:12:50.785Z,10.98
2019-05-11T07:15:20.199Z,11.13
2019-05-11T07:17:49.637Z,11.23
2019-05-11T07:20:19.098Z,11.49
2019-05-11T07:22:48.932Z,11.66
2019-05-11T07:25:18.396Z,11.71
2019-05-11T07:27:47.825Z,11.64
2019-05-11T07:30:17.395Z,11.63
2019-05-11T07:32:48.185Z,11.63
2019-05-11T07:35:18.832Z,11.70
2019-05-11T07:37:48.401Z,11.84
2019-05-11T07:40:18.730Z,11.87
2019-05-11T07:42:48.751Z,12.22
2019-05-11T07:45:18.339Z,12.42
2019-05-11T07:47:48.542Z,12.49
2019-05-11T07:50:18.607Z,12.57
2019-05-11T07:52:48.443Z,12.66
2019-05-11T07:55:19.001Z,12.85
2019-05-11T07:57:48.753Z,12.96
2019-05-11T08:00:18.757Z,12.80
2019-05-11T08:02:48.384Z,12.89
2019-05-11T08:05:18.590Z,13.10
2019-05-11T08:07:48.409Z,13.10
2019-05-11T08:10:18.696Z,13.20
2019-05-11T08:12:48.400Z,13.34
2019-05-11T08:15:18.543Z,13.22
2019-05-11T08:17:49.009Z,13.17
2019-05-11T08:20:19.525Z,13.08
2019-05-11T08:22:49.027Z,13.32
2019-05-11T08:25:18.503Z,13.68
2019-05-11T08:27:48.623Z,14.05
2019-05-11T08:30:18.893Z,14.33
2019-05-11T08:32:49.284Z,14.13
2019-05-11T08:35:19.290Z,14.08
2019-05-11T08:37:48.751Z,13.88
2019-05-11T08:40:19.918Z,13.68
2019-05-11T08:42:49.379Z,13.57
2019-05-11T08:45:24.250Z,13.70
2019-05-11T08:47:50.277Z,14.08
2019-05-11T08:50:20.969Z,14.32
2019-05-11T08:52:50.388Z,14.47
2019-05-11T08:55:19.781Z,14.50
2019-05-11T08:57:49.250Z,14.32
2019-05-11T09:00:20.159Z,14.46
2019-05-11T09:02:50.693Z,14.82
2019-05-11T09:05:20.780Z,15.18
2019-05-11T09:07:50.252Z,15.26
2019-05-11T09:10:19.675Z,15.27
2019-05-11T09:12:49.299Z,15.05
2019-05-11T09:15:33.468Z,14.84
2019-05-11T09:17:53.185Z,14.84
2019-05-11T09:20:22.614Z,14.89
2019-05-11T09:22:52.204Z,14.99
2019-05-11T09:25:21.592Z,15.36
2019-05-11T09:27:51.083Z,15.50
2019-05-11T09:30:20.779Z,15.32
2019-05-11T09:32:50.237Z,15.45
2019-05-11T09:35:19.730Z,15.65
2019-05-11T09:37:49.153Z,16.03
2019-05-11T09:40:18.788Z,16.08
2019-05-11T09:42:48.300Z,16.11
2019-05-11T09:45:18.692Z,16.26
2019-05-11T09:47:50.807Z,16.75
2019-05-11T09:50:20.465Z,16.87
2019-05-11T09:52:49.824Z,16.96
2019-05-11T09:55:19.444Z,16.83
2019-05-11T09:57:49.042Z,16.77
2019-05-11T10:00:18.778Z,16.53
2019-05-11T10:02:48.851Z,16.19
2019-05-11T10:05:19.113Z,15.91
2019-05-11T10:07:48.719Z,15.87
2019-05-11T10:10:18.850Z,15.98
2019-05-11T10:12:52.319Z,15.93
2019-05-11T10:15:20.495Z,15.98
2019-05-11T10:17:49.973Z,16.09
2019-05-11T10:20:19.368Z,16.10
2019-05-11T10:22:48.935Z,16.17
2019-05-11T10:25:18.521Z,16.31
2019-05-11T10:27:48.859Z,16.74
2019-05-11T10:30:19.488Z,17.32
2019-05-11T10:32:49.223Z,17.96
2019-05-11T10:35:18.755Z,17.93
2019-05-11T10:37:50.201Z,17.79
2019-05-11T10:40:19.760Z,17.51
2019-05-11T10:42:49.184Z,17.39
2019-05-11T10:45:18.734Z,17.31
2019-05-11T10:47:48.966Z,17.39
2019-05-11T10:50:19.021Z,17.39
2019-05-11T10:52:48.715Z,17.42
2019-05-11T10:55:19.296Z,17.36
2019-05-11T10:57:49.230Z,17.29
2019-05-11T11:00:19.111Z,17.27
2019-05-11T11:02:48.606Z,17.18
2019-05-11T11:05:18.909Z,17.03
2019-05-11T11:07:48.661Z,16.97
2019-05-11T11:10:18.446Z,17.17
2019-05-11T11:12:48.960Z,17.06
2019-05-11T11:15:18.879Z,17.05
2019-05-11T11:17:48.710Z,17.15
2019-05-11T11:20:18.956Z,17.47
2019-05-11T11:22:48.601Z,17.70
2019-05-11T11:25:18.237Z,17.57
2019-05-11T11:27:48.733Z,17.59
2019-05-11T11:30:18.915Z,17.76
2019-05-11T11:32:48.535Z,17.44
2019-05-11T11:35:18.711Z,17.44
2019-05-11T11:37:48.549Z,17.54
2019-05-11T11:40:18.377Z,17.77
2019-05-11T11:42:48.025Z,18.05
2019-05-11T11:45:18.419Z,18.11
2019-05-11T11:47:49.288Z,18.07
2019-05-11T11:50:19.032Z,17.98
2019-05-11T11:52:48.593Z,17.98
2019-05-11T11:55:18.700Z,18.58
2019-05-11T11:57:50.317Z,19.10
2019-05-11T12:00:20.330Z,19.40
2019-05-11T12:02:49.827Z,19.57
2019-05-11T12:05:19.330Z,19.73
2019-05-11T12:07:49.180Z,20.10
2019-05-11T12:10:18.881Z,20.58
2019-05-11T12:12:48.354Z,21.16
2019-05-11T12:15:17.979Z,21.13
2019-05-11T12:17:48.339Z,22.16
2019-05-11T12:20:18.309Z,23.16
2019-05-11T12:22:47.869Z,23.24
2019-05-11T12:25:18.556Z,22.84
2019-05-11T12:27:49.166Z,22.19
2019-05-11T12:30:18.863Z,21.49
2019-05-11T12:32:50.040Z,20.93
2019-05-11T12:35:19.522Z,20.61
2019-05-11T12:37:48.976Z,20.67
2019-05-11T12:40:18.554Z,21.36
2019-05-11T12:42:49.041Z,22.69
2019-05-11T12:45:18.788Z,24.59
2019-05-11T12:47:48.674Z,25.19
2019-05-11T12:50:20.152Z,24.78
2019-05-11T12:52:49.683Z,23.71
2019-05-11T12:55:19.501Z,22.80
2019-05-11T12:57:48.922Z,22.43
2019-05-11T13:00:18.428Z,23.47
2019-05-11T13:02:48.541Z,23.48
2019-05-11T13:05:18.430Z,22.85
2019-05-11T13:07:49.856Z,22.55
2019-05-11T13:10:19.289Z,22.42
2019-05-11T13:12:49.431Z,22.06
2019-05-11T13:15:19.679Z,23.35
2019-05-11T13:17:49.421Z,25.21
2019-05-11T13:20:18.820Z,26.63
2019-05-11T13:22:49.043Z,28.09
2019-05-11T13:25:18.567Z,26.53
2019-05-11T13:27:49.255Z,24.35
2019-05-11T13:30:19.111Z,22.65
2019-05-11T13:32:51.666Z,22.33
2019-05-11T13:35:21.183Z,22.67
2019-05-11T13:37:50.663Z,24.75
2019-05-11T13:40:20.279Z,27.34
2019-05-11T13:42:49.840Z,29.20
2019-05-11T13:45:19.464Z,30.10
2019-05-11T13:47:54.754Z,28.97
2019-05-11T13:50:20.205Z,27.43
2019-05-11T13:52:49.596Z,27.39
2019-05-11T13:55:19.149Z,27.57
2019-05-11T13:57:48.808Z,26.63
2019-05-11T14:00:18.416Z,24.54
2019-05-11T14:02:48.669Z,22.42
2019-05-11T14:05:18.378Z,20.48
2019-05-11T14:07:48.339Z,18.95
2019-05-11T14:10:18.369Z,18.08
2019-05-11T14:12:48.137Z,17.51
2019-05-11T14:15:19.042Z,18.68
2019-05-11T14:18:04.375Z,20.58
2019-05-11T14:20:20.810Z,20.61
2019-05-11T14:22:50.421Z,20.25
2019-05-11T14:25:19.980Z,21.60
2019-05-11T14:27:49.417Z,24.89
2019-05-11T14:30:19.305Z,27.24
2019-05-11T14:32:48.934Z,27.41
2019-05-11T14:35:18.953Z,24.47
2019-05-11T14:37:48.848Z,21.91
2019-05-11T14:40:18.605Z,20.35
2019-05-11T14:42:48.999Z,20.81
2019-05-11T14:45:19.020Z,20.54
2019-05-11T14:47:48.978Z,19.86
2019-05-11T14:50:18.938Z,19.13
2019-05-11T14:52:49.154Z,18.68
2019-05-11T14:55:19.696Z,18.55
2019-05-11T14:57:49.181Z,17.92
2019-05-11T15:00:18.806Z,18.11
2019-05-11T15:02:49.777Z,20.26
2019-05-11T15:05:20.850Z,23.28
2019-05-11T15:07:52.654Z,26.48
2019-05-11T15:10:22.150Z,27.55
2019-05-11T15:12:51.551Z,27.55
2019-05-11T15:15:21.090Z,24.97
2019-05-11T15:17:50.606Z,22.20
2019-05-11T15:20:21.685Z,22.81
2019-05-11T15:22:51.181Z,25.46
2019-05-11T15:25:20.624Z,24.17
2019-05-11T15:27:50.000Z,22.21
2019-05-11T15:30:19.958Z,21.43
2019-05-11T15:32:49.459Z,22.89
2019-05-11T15:35:19.200Z,24.63
2019-05-11T15:37:48.932Z,25.57
2019-05-11T15:40:19.562Z,25.95
2019-05-11T15:42:49.024Z,24.77
2019-05-11T15:45:20.646Z,23.92
2019-05-11T15:47:50.196Z,22.36
2019-05-11T15:50:19.918Z,21.85
2019-05-11T15:52:49.383Z,23.01
2019-05-11T15:55:19.959Z,24.61
2019-05-11T15:57:49.331Z,26.13
2019-05-11T16:00:19.270Z,26.84
2019-05-11T16:02:49.220Z,27.75
2019-05-11T16:05:19.758Z,28.62
2019-05-11T16:07:49.595Z,29.37
2019-05-11T16:10:19.425Z,29.74
2019-05-11T16:12:49.170Z,30.12
2019-05-11T16:15:19.744Z,30.34
2019-05-11T16:17:49.777Z,30.58
2019-05-11T16:20:19.523Z,30.38
2019-05-11T16:22:49.018Z,29.44
2019-05-11T16:25:20.152Z,28.86
2019-05-11T16:27:49.739Z,28.03
2019-05-11T16:30:21.507Z,26.30
2019-05-11T16:32:51.471Z,26.31
2019-05-11T16:35:21.013Z,25.14
2019-05-11T16:37:50.507Z,23.76
2019-05-11T16:40:21.131Z,23.34
2019-05-11T16:42:50.698Z,23.06
2019-05-11T16:45:23.761Z,23.40
2019-05-11T16:47:52.225Z,23.28
2019-05-11T16:50:21.624Z,22.14
2019-05-11T16:52:51.050Z,22.14
2019-05-11T16:55:20.441Z,22.21
2019-05-11T16:57:49.827Z,22.33
2019-05-11T17:00:19.322Z,21.27
2019-05-11T17:02:49.338Z,19.49
2019-05-11T17:05:26.445Z,18.29
2019-05-11T17:07:50.121Z,17.65
2019-05-11T17:10:19.603Z,18.19
2019-05-11T17:12:49.220Z,17.78
2019-05-11T17:15:19.226Z,17.32
2019-05-11T17:17:49.200Z,17.70
2019-05-11T17:20:19.501Z,18.78
2019-05-11T17:22:49.073Z,19.52
2019-05-11T17:25:19.549Z,20.15
2019-05-11T17:27:49.387Z,19.64
2019-05-11T17:30:19.893Z,19.65
2019-05-11T17:32:50.124Z,19.49
2019-05-11T17:35:19.973Z,19.17
2019-05-11T17:37:49.407Z,18.70
2019-05-11T17:40:23.091Z,18.37
2019-05-11T17:42:53.483Z,18.12
2019-05-11T17:45:21.488Z,17.95
2019-05-11T17:47:50.878Z,17.74
2019-05-11T17:50:20.384Z,17.25
2019-05-11T17:52:49.899Z,16.97
2019-05-11T17:55:19.469Z,16.81
2019-05-11T17:57:50.418Z,16.42
2019-05-11T18:00:21.885Z,16.21
2019-05-11T18:02:51.409Z,16.00
2019-05-11T18:05:20.808Z,15.66
2019-05-11T18:07:50.261Z,15.66
2019-05-11T18:10:19.764Z,15.36
2019-05-11T18:12:49.904Z,15.12
2019-05-11T18:15:19.349Z,15.06
2019-05-11T18:17:49.045Z,14.83
2019-05-11T18:20:22.023Z,14.39
2019-05-11T18:22:49.902Z,13.90
2019-05-11T18:25:19.358Z,13.47
2019-05-11T18:27:48.771Z,13.24
2019-05-11T18:30:18.193Z,12.87
2019-05-11T18:32:49.135Z,12.58
2019-05-11T18:35:19.691Z,12.32
2019-05-11T18:37:49.327Z,11.97
2019-05-11T18:40:19.045Z,11.70
2019-05-11T18:42:49.236Z,11.43
2019-05-11T18:45:19.307Z,11.22
2019-05-11T18:47:49.313Z,11.01
2019-05-11T18:50:29.830Z,10.83
2019-05-11T18:52:50.646Z,10.64
2019-05-11T18:55:20.130Z,10.47
2019-05-11T18:57:49.559Z,10.33
2019-05-11T19:00:19.267Z,10.14
2019-05-11T19:02:49.666Z,10.13
2019-05-11T19:05:19.393Z,10.06
2019-05-11T19:07:48.972Z,9.90
2019-05-11T19:10:18.365Z,9.75
2019-05-11T19:12:48.798Z,9.54
2019-05-11T19:15:19.251Z,9.32
2019-05-11T19:17:49.482Z,9.11
2019-05-11T19:20:19.209Z,8.98
2019-05-11T19:22:48.711Z,9.01
2019-05-11T19:25:18.537Z,9.01
2019-05-11T19:27:50.580Z,9.01
2019-05-11T19:30:19.872Z,9.01
2019-05-11T19:32:49.388Z,9.00
2019-05-11T19:35:21.155Z,8.96
2019-05-11T19:37:50.052Z,8.84
2019-05-11T19:40:19.443Z,8.82
2019-05-11T19:42:55.317Z,8.69
2019-05-11T19:45:24.894Z,8.49
2019-05-11T19:47:54.412Z,8.43
2019-05-11T19:50:23.769Z,8.43
2019-05-11T19:52:53.254Z,8.42
2019-05-11T19:55:22.710Z,8.33
2019-05-11T19:57:52.234Z,8.24
2019-05-11T20:00:21.669Z,8.19
2019-05-11T20:02:51.143Z,8.25
2019-05-11T20:05:20.548Z,8.21
2019-05-11T20:07:49.903Z,8.03
2019-05-11T20:10:19.400Z,7.86
2019-05-11T20:12:49.148Z,7.81
2019-05-11T20:15:19.183Z,7.76
2019-05-11T20:17:49.198Z,7.78
2019-05-11T20:20:18.941Z,7.74
2019-05-11T20:22:49.109Z,7.63
2019-05-11T20:25:21.671Z,7.48
2019-05-11T20:27:51.073Z,7.56
2019-05-11T20:30:20.542Z,7.50
2019-05-11T20:32:50.090Z,7.49
2019-05-11T20:35:20.548Z,7.32
2019-05-11T20:37:49.982Z,7.17
2019-05-11T20:40:19.444Z,7.07
2019-05-11T20:42:48.984Z,7.03
2019-05-11T20:45:18.995Z,7.09
2019-05-11T20:47:49.167Z,7.07
2019-05-11T20:50:18.827Z,7.17
2019-05-11T20:52:49.107Z,7.09
2019-05-11T20:55:18.666Z,7.01
2019-05-11T20:57:48.718Z,6.91
2019-05-11T21:00:19.666Z,7.07
2019-05-11T21:02:49.317Z,7.09
2019-05-11T21:05:18.953Z,7.11
2019-05-11T21:07:48.390Z,6.94
2019-05-11T21:10:17.950Z,6.80
2019-05-11T21:12:47.412Z,6.69
2019-05-11T21:15:18.042Z,6.73
2019-05-11T21:17:48.152Z,6.68
2019-05-11T21:20:18.691Z,6.52
2019-05-11T21:22:48.829Z,6.33
2019-05-11T21:25:18.859Z,6.43
2019-05-11T21:27:48.857Z,6.40
2019-05-11T21:30:18.754Z,6.27
2019-05-11T21:32:48.315Z,6.13
2019-05-11T21:35:19.296Z,6.03
2019-05-11T21:37:48.990Z,5.93
2019-05-11T21:40:18.419Z,5.79
2019-05-11T21:42:47.876Z,5.85
2019-05-11T21:45:18.281Z,5.91
2019-05-11T21:47:49.007Z,5.95
2019-05-11T21:50:19.253Z,5.92
2019-05-11T21:52:48.796Z,6.01
2019-05-11T21:55:18.263Z,5.97
2019-05-11T21:57:49.832Z,5.99
2019-05-11T22:00:19.117Z,5.92
2019-05-11T22:02:48.754Z,5.93
2019-05-11T22:05:20.887Z,5.85
2019-05-11T22:07:50.248Z,5.86
2019-05-11T22:10:19.882Z,6.02
2019-05-11T22:12:49.289Z,5.91
2019-05-11T22:15:18.860Z,5.82
2019-05-11T22:17:48.533Z,5.84
2019-05-11T22:20:19.292Z,5.92
2019-05-11T22:22:48.747Z,5.89
2019-05-11T22:25:18.547Z,5.88
2019-05-11T22:27:48.829Z,5.74
2019-05-11T22:30:18.853Z,5.65
2019-05-11T22:32:48.392Z,5.54
2019-05-11T22:35:18.418Z,5.47
2019-05-11T22:37:48.949Z,5.36
2019-05-11T22:40:18.992Z,5.24
2019-05-11T22:42:48.460Z,5.26
2019-05-11T22:45:18.817Z,5.29
2019-05-11T22:47:48.391Z,5.18
2019-05-11T22:50:18.592Z,5.12
2019-05-11T22:52:48.589Z,5.04
2019-05-11T22:55:18.913Z,5.13
2019-05-11T22:57:48.932Z,5.20
2019-05-11T23:00:29.069Z,5.22
2019-05-11T23:02:58.803Z,5.16
2019-05-11T23:05:29.968Z,4.97
2019-05-11T23:07:59.507Z,4.91
2019-05-11T23:10:29.295Z,4.83
2019-05-11T23:12:58.866Z,4.88
2019-05-11T23:15:28.395Z,4.89
2019-05-11T23:17:59.948Z,4.86
2019-05-11T23:20:30.207Z,4.79
2019-05-11T23:23:01.663Z,4.84
2019-05-11T23:25:30.928Z,4.93
2019-05-11T23:28:00.450Z,4.95
2019-05-11T23:30:29.932Z,4.91
2019-05-11T23:32:59.403Z,4.95
2019-05-11T23:35:29.450Z,4.94
2019-05-11T23:37:58.997Z,4.93
2019-05-11T23:40:28.612Z,5.14
2019-05-11T23:42:58.133Z,5.13
2019-05-11T23:45:28.155Z,5.07
2019-05-11T23:47:58.847Z,4.87
2019-05-11T23:50:28.495Z,4.88
2019-05-11T23:53:06.428Z,4.90
2019-05-11T23:55:29.252Z,5.05
2019-05-11T23:57:58.709Z,4.92
